createdAt,value
2023-02-23T00:01:55.105Z,11.00
2023-02-23T00:04:24.787Z,11.00
2023-02-23T00:06:53.545Z,11.00
2023-02-23T00:09:26.016Z,10.90
2023-02-23T00:11:56.138Z,11.00
2023-02-23T00:14:27.952Z,11.00
2023-02-23T00:16:56.082Z,11.00
2023-02-23T00:19:25.755Z,11.00
2023-02-23T00:21:54.557Z,11.00
2023-02-23T00:24:26.998Z,11.00
2023-02-23T00:26:55.481Z,11.00
2023-02-23T00:29:25.622Z,11.00
2023-02-23T00:31:56.315Z,11.00
2023-02-23T00:34:24.558Z,10.90
2023-02-23T00:36:55.267Z,10.90
2023-02-23T00:39:28.885Z,10.90
2023-02-23T00:42:02.804Z,11.00
2023-02-23T00:44:32.299Z,11.00
2023-02-23T00:47:00.616Z,10.90
2023-02-23T00:49:28.881Z,11.00
2023-02-23T00:51:56.990Z,11.00
2023-02-23T00:54:26.597Z,11.00
2023-02-23T00:56:57.661Z,11.00
2023-02-23T00:59:25.712Z,11.00
2023-02-23T01:01:53.944Z,11.00
2023-02-23T01:04:23.330Z,11.00
2023-02-23T01:06:51.476Z,11.00
2023-02-23T01:09:28.100Z,11.00
2023-02-23T01:12:01.508Z,11.00
2023-02-23T01:14:31.240Z,11.00
2023-02-23T01:16:59.920Z,11.00
2023-02-23T01:19:28.556Z,11.10
2023-02-23T01:21:56.771Z,11.10
2023-02-23T01:24:24.971Z,11.00
2023-02-23T01:26:53.773Z,11.00
2023-02-23T01:29:23.218Z,11.00
2023-02-23T01:31:52.170Z,11.00
2023-02-23T01:34:21.731Z,11.00
2023-02-23T01:36:50.223Z,11.00
2023-02-23T01:39:20.980Z,11.00
2023-02-23T01:41:51.780Z,11.00
2023-02-23T01:44:58.494Z,10.90
2023-02-23T01:47:29.991Z,11.00
2023-02-23T01:49:58.529Z,10.90
2023-02-23T01:52:27.517Z,10.90
2023-02-23T01:54:57.486Z,11.00
2023-02-23T01:57:27.151Z,10.90
2023-02-23T01:59:56.509Z,10.90
2023-02-23T02:02:33.867Z,11.00
2023-02-23T02:05:08.413Z,10.90
2023-02-23T02:07:39.592Z,10.90
2023-02-23T02:10:38.621Z,10.90
2023-02-23T02:13:09.072Z,10.80
2023-02-23T02:15:44.077Z,10.80
2023-02-23T02:18:19.158Z,10.80
2023-02-23T02:21:23.227Z,10.80
2023-02-23T02:24:24.199Z,11.00
2023-02-23T02:27:11.603Z,11.00
2023-02-23T02:30:10.682Z,11.00
2023-02-23T02:33:16.657Z,10.90
2023-02-23T02:36:13.906Z,10.80
2023-02-23T02:38:53.995Z,10.80
2023-02-23T02:41:28.217Z,10.80
2023-02-23T02:44:03.299Z,10.80
2023-02-23T02:46:36.108Z,10.80
2023-02-23T02:49:07.835Z,10.80
2023-02-23T02:51:44.695Z,10.90
2023-02-23T02:54:24.415Z,10.80
2023-02-23T02:56:57.518Z,10.90
2023-02-23T02:59:45.517Z,10.80
2023-02-23T03:02:35.424Z,10.70
2023-02-23T03:05:26.449Z,10.70
2023-02-23T03:08:25.907Z,10.70
2023-02-23T03:11:18.386Z,10.60
2023-02-23T03:14:15.674Z,10.60
2023-02-23T03:17:11.227Z,10.60
2023-02-23T03:20:06.737Z,10.60
2023-02-23T03:22:58.195Z,10.60
2023-02-23T03:25:51.103Z,10.60
2023-02-23T03:28:43.378Z,10.50
2023-02-23T03:31:35.031Z,10.60
2023-02-23T03:34:30.420Z,10.60
2023-02-23T03:37:23.040Z,10.60
2023-02-23T03:40:16.021Z,10.60
2023-02-23T03:43:03.202Z,10.60
2023-02-23T03:45:50.822Z,10.60
2023-02-23T03:48:39.204Z,10.60
2023-02-23T03:51:30.651Z,10.60
2023-02-23T03:54:23.590Z,10.60
2023-02-23T03:57:12.158Z,10.60
2023-02-23T04:00:02.685Z,10.60
2023-02-23T04:02:53.151Z,10.60
2023-02-23T04:05:41.110Z,10.60
2023-02-23T04:08:30.709Z,10.50
2023-02-23T04:11:21.181Z,10.50
2023-02-23T04:13:54.418Z,10.60
2023-02-23T04:16:22.403Z,10.60
2023-02-23T04:18:52.020Z,10.60
2023-02-23T04:21:20.427Z,10.60
2023-02-23T04:23:48.998Z,10.60
2023-02-23T04:26:17.104Z,10.60
2023-02-23T04:28:45.097Z,10.60
2023-02-23T04:31:13.112Z,10.60
2023-02-23T04:33:41.111Z,10.70
2023-02-23T04:36:10.706Z,10.60
2023-02-23T04:38:38.779Z,10.60
2023-02-23T04:41:06.786Z,10.60
2023-02-23T04:43:34.838Z,10.60
2023-02-23T04:46:03.003Z,10.60
2023-02-23T04:48:31.021Z,10.50
2023-02-23T04:50:59.186Z,10.50
2023-02-23T04:53:28.624Z,10.50
2023-02-23T04:55:56.712Z,10.50
2023-02-23T04:58:24.740Z,10.50
2023-02-23T05:00:52.766Z,10.50
2023-02-23T05:03:20.850Z,10.50
2023-02-23T05:05:48.837Z,10.50
2023-02-23T05:08:16.896Z,10.40
2023-02-23T05:10:47.446Z,10.50
2023-02-23T05:13:16.260Z,10.50
2023-02-23T05:15:44.309Z,10.50
2023-02-23T05:18:12.625Z,10.40
2023-02-23T05:20:44.732Z,10.40
2023-02-23T05:23:13.186Z,10.40
2023-02-23T05:25:41.205Z,10.40
2023-02-23T05:28:10.651Z,10.40
2023-02-23T05:30:39.105Z,10.40
2023-02-23T05:33:07.142Z,10.40
2023-02-23T05:35:35.623Z,10.50
2023-02-23T05:38:03.629Z,10.40
2023-02-23T05:40:32.235Z,10.40
2023-02-23T05:43:00.877Z,10.40
2023-02-23T05:45:30.411Z,10.30
2023-02-23T05:47:58.850Z,10.30
2023-02-23T05:50:27.388Z,10.30
2023-02-23T05:52:55.555Z,10.20
2023-02-23T05:55:23.585Z,10.20
2023-02-23T05:57:51.676Z,10.10
2023-02-23T06:00:20.430Z,10.10
2023-02-23T06:02:52.299Z,10.20
2023-02-23T06:05:20.607Z,10.20
2023-02-23T06:07:48.608Z,10.20
2023-02-23T06:10:16.783Z,10.20
2023-02-23T06:12:44.864Z,10.20
2023-02-23T06:15:13.018Z,10.30
2023-02-23T06:17:41.044Z,10.30
2023-02-23T06:20:14.249Z,10.30
2023-02-23T06:22:42.887Z,10.30
2023-02-23T06:25:13.377Z,10.30
2023-02-23T06:27:42.193Z,10.20
2023-02-23T06:30:12.087Z,10.20
2023-02-23T06:32:40.408Z,10.20
2023-02-23T06:35:13.429Z,10.30
2023-02-23T06:37:41.552Z,10.30
2023-02-23T06:40:10.851Z,10.30
2023-02-23T06:42:38.897Z,10.30
2023-02-23T06:45:07.882Z,10.30
2023-02-23T06:47:35.870Z,10.30
2023-02-23T06:50:04.235Z,10.30
2023-02-23T06:52:34.128Z,10.40
2023-02-23T06:55:02.210Z,10.40
2023-02-23T06:57:30.383Z,10.40
2023-02-23T06:59:58.378Z,10.40
2023-02-23T07:02:26.378Z,10.40
2023-02-23T07:04:54.416Z,10.30
2023-02-23T07:07:22.830Z,10.30
2023-02-23T07:09:52.188Z,10.30
2023-02-23T07:12:21.031Z,10.30
2023-02-23T07:14:49.154Z,10.30
2023-02-23T07:17:17.816Z,10.30
2023-02-23T07:19:45.812Z,10.30
2023-02-23T07:22:13.850Z,10.30
2023-02-23T07:24:41.943Z,10.40
2023-02-23T07:27:11.353Z,10.40
2023-02-23T07:29:39.381Z,10.30
2023-02-23T07:32:07.559Z,10.40
2023-02-23T07:34:37.115Z,10.40
2023-02-23T07:37:05.117Z,10.40
2023-02-23T07:39:33.161Z,10.40
2023-02-23T07:42:01.319Z,10.40
2023-02-23T07:44:32.681Z,10.40
2023-02-23T07:47:00.748Z,10.40
2023-02-23T07:49:30.453Z,10.40
2023-02-23T07:51:58.495Z,10.50
2023-02-23T07:54:26.600Z,10.40
2023-02-23T07:56:54.891Z,10.40
2023-02-23T07:59:22.869Z,10.40
2023-02-23T08:01:52.730Z,10.50
2023-02-23T08:04:20.765Z,10.60
2023-02-23T08:06:48.808Z,10.60
2023-02-23T08:09:16.835Z,10.60
2023-02-23T08:11:45.100Z,10.60
2023-02-23T08:14:13.477Z,10.60
2023-02-23T08:16:41.701Z,10.60
2023-02-23T08:19:11.620Z,10.60
2023-02-23T08:21:39.607Z,10.60
2023-02-23T08:24:08.394Z,10.50
2023-02-23T08:26:37.966Z,10.50
2023-02-23T08:29:06.504Z,10.50
2023-02-23T08:31:35.034Z,10.50
2023-02-23T08:34:03.652Z,10.50
2023-02-23T08:36:33.090Z,10.60
2023-02-23T08:39:02.278Z,10.70
2023-02-23T08:41:30.340Z,10.70
2023-02-23T08:44:00.315Z,10.70
2023-02-23T08:46:28.622Z,10.80
2023-02-23T08:48:57.388Z,10.80
2023-02-23T08:51:25.921Z,10.90
2023-02-23T08:53:57.220Z,10.80
2023-02-23T08:56:27.137Z,10.80
2023-02-23T08:58:55.332Z,10.70
2023-02-23T09:01:23.600Z,10.80
2023-02-23T09:03:52.166Z,10.80
2023-02-23T09:06:24.137Z,10.80
2023-02-23T09:08:52.573Z,10.70
2023-02-23T09:11:22.287Z,10.60
2023-02-23T09:13:50.671Z,10.50
2023-02-23T09:16:19.097Z,10.50
2023-02-23T09:18:47.730Z,10.40
2023-02-23T09:21:21.092Z,10.50
2023-02-23T09:23:51.410Z,10.40
2023-02-23T09:26:24.803Z,10.40
2023-02-23T09:28:53.093Z,10.40
2023-02-23T09:31:24.689Z,10.40
2023-02-23T09:33:53.619Z,10.50
2023-02-23T09:36:24.174Z,10.50
2023-02-23T09:38:56.446Z,10.50
2023-02-23T09:42:01.346Z,10.50
2023-02-23T09:44:46.277Z,10.50
2023-02-23T09:47:29.573Z,10.50
2023-02-23T09:50:00.920Z,10.50
2023-02-23T09:52:44.828Z,10.50
2023-02-23T09:55:15.185Z,10.50
2023-02-23T09:57:47.936Z,10.50
2023-02-23T10:00:21.237Z,10.60
2023-02-23T10:03:18.887Z,10.60
2023-02-23T10:05:53.306Z,10.50
2023-02-23T10:08:37.666Z,10.60
2023-02-23T10:11:13.254Z,10.60
2023-02-23T10:13:53.970Z,10.60
2023-02-23T10:16:31.439Z,10.50
2023-02-23T10:19:07.101Z,10.50
2023-02-23T10:21:39.939Z,10.50
2023-02-23T10:24:13.639Z,10.50
2023-02-23T10:26:46.289Z,10.50
2023-02-23T10:29:27.447Z,10.50
2023-02-23T10:32:01.070Z,10.50
2023-02-23T10:34:30.032Z,10.50
2023-02-23T10:37:01.825Z,10.50
2023-02-23T10:39:31.669Z,10.50
2023-02-23T10:42:03.981Z,10.50
2023-02-23T10:44:36.072Z,10.50
2023-02-23T10:47:10.298Z,10.50
2023-02-23T10:49:44.662Z,10.50
2023-02-23T10:52:14.498Z,10.50
2023-02-23T10:54:45.926Z,10.50
2023-02-23T10:57:21.189Z,10.50
2023-02-23T11:00:33.026Z,10.50
2023-02-23T11:03:03.290Z,10.40
2023-02-23T11:05:45.383Z,10.40
2023-02-23T11:08:22.212Z,10.40
2023-02-23T11:11:01.848Z,10.40
2023-02-23T11:13:37.972Z,10.40
2023-02-23T11:16:13.076Z,10.40
2023-02-23T11:18:43.526Z,10.50
2023-02-23T11:21:14.360Z,10.50
2023-02-23T11:23:43.008Z,10.50
2023-02-23T11:26:28.453Z,10.40
2023-02-23T11:28:59.086Z,10.50
2023-02-23T11:31:34.682Z,10.50
2023-02-23T11:34:05.518Z,10.50
2023-02-23T11:36:35.702Z,10.60
2023-02-23T11:39:08.281Z,10.50
2023-02-23T11:41:37.619Z,10.50
2023-02-23T11:44:06.610Z,10.50
2023-02-23T11:46:39.876Z,10.50
2023-02-23T11:49:15.936Z,10.50
2023-02-23T11:51:50.183Z,10.50
2023-02-23T11:54:23.670Z,10.50
2023-02-23T11:56:55.208Z,10.50
2023-02-23T11:59:29.885Z,10.50
2023-02-23T12:02:07.528Z,10.50
2023-02-23T12:04:38.495Z,10.40
2023-02-23T12:07:38.792Z,10.40
2023-02-23T12:10:15.595Z,10.40
2023-02-23T12:12:52.856Z,10.30
2023-02-23T12:15:31.051Z,10.30
2023-02-23T12:18:05.330Z,10.20
2023-02-23T12:20:38.606Z,10.20
2023-02-23T12:23:11.220Z,10.20
2023-02-23T12:25:47.333Z,10.10
2023-02-23T12:28:26.085Z,10.20
2023-02-23T12:30:59.782Z,10.20
2023-02-23T12:33:35.084Z,10.20
2023-02-23T12:36:20.655Z,10.20
2023-02-23T12:38:57.251Z,10.20
2023-02-23T12:41:36.429Z,10.20
2023-02-23T12:44:19.251Z,10.20
2023-02-23T12:46:53.220Z,10.10
2023-02-23T12:49:31.415Z,10.10
2023-02-23T12:52:06.760Z,10.20
2023-02-23T12:54:35.581Z,10.20
2023-02-23T12:57:12.018Z,10.10
2023-02-23T13:00:01.838Z,10.10
2023-02-23T13:02:34.838Z,10.10
2023-02-23T13:05:24.593Z,10.10
2023-02-23T13:08:12.858Z,10.10
2023-02-23T13:10:49.839Z,10.10
2023-02-23T13:13:32.540Z,10.10
2023-02-23T13:16:08.576Z,10.10
2023-02-23T13:18:43.590Z,10.10
2023-02-23T13:21:18.866Z,10.10
2023-02-23T13:24:00.039Z,10.10
2023-02-23T13:26:38.486Z,10.10
2023-02-23T13:29:13.658Z,10.20
2023-02-23T13:31:44.907Z,10.20
2023-02-23T13:34:18.648Z,10.20
2023-02-23T13:36:50.514Z,10.30
2023-02-23T13:39:47.870Z,10.20
2023-02-23T13:42:31.285Z,10.20
2023-02-23T13:45:14.449Z,10.20
2023-02-23T13:47:49.156Z,10.20
2023-02-23T13:50:23.658Z,10.10
2023-02-23T13:52:58.371Z,10.10
2023-02-23T13:55:49.858Z,10.00
2023-02-23T13:58:26.896Z,10.00
2023-02-23T14:01:05.729Z,9.90
2023-02-23T14:03:42.393Z,9.90
2023-02-23T14:06:15.240Z,9.90
2023-02-23T14:08:52.281Z,10.00
2023-02-23T14:11:45.019Z,10.00
2023-02-23T14:14:17.269Z,10.00
2023-02-23T14:17:05.667Z,10.10
2023-02-23T14:19:37.985Z,10.10
2023-02-23T14:22:11.125Z,10.10
2023-02-23T14:24:39.674Z,10.10
2023-02-23T14:27:39.867Z,10.10
2023-02-23T14:30:49.801Z,10.10
2023-02-23T14:33:37.268Z,10.10
2023-02-23T14:36:53.188Z,10.20
2023-02-23T14:39:26.926Z,10.30
2023-02-23T14:41:57.017Z,10.30
2023-02-23T14:44:31.112Z,10.30
2023-02-23T14:47:04.312Z,10.30
2023-02-23T14:49:37.877Z,10.30
2023-02-23T14:52:10.593Z,10.40
2023-02-23T14:54:40.234Z,10.40
2023-02-23T14:57:20.632Z,10.40
2023-02-23T14:59:54.746Z,10.40
2023-02-23T15:02:25.182Z,10.40
2023-02-23T15:04:53.930Z,10.40
2023-02-23T15:07:32.170Z,10.40
2023-02-23T15:10:02.342Z,10.30
2023-02-23T15:12:35.679Z,10.30
2023-02-23T15:15:06.704Z,10.30
2023-02-23T15:17:35.898Z,10.30
2023-02-23T15:20:16.170Z,10.30
2023-02-23T15:22:49.647Z,10.30
2023-02-23T15:25:20.910Z,10.30
2023-02-23T15:27:49.457Z,10.30
2023-02-23T15:30:23.686Z,10.30
2023-02-23T15:33:01.370Z,10.30
2023-02-23T15:35:30.990Z,10.40
2023-02-23T15:38:14.101Z,10.40
2023-02-23T15:40:57.031Z,10.40
2023-02-23T15:43:29.508Z,10.40
2023-02-23T15:46:04.294Z,10.30
2023-02-23T15:48:45.913Z,10.30
2023-02-23T15:51:27.751Z,10.30
2023-02-23T15:53:57.593Z,10.40
2023-02-23T15:56:28.409Z,10.50
2023-02-23T15:58:59.381Z,10.40
2023-02-23T16:01:30.261Z,10.30
2023-02-23T16:04:02.356Z,10.20
2023-02-23T16:06:35.798Z,10.20
2023-02-23T16:09:21.298Z,10.20
2023-02-23T16:11:52.224Z,10.20
2023-02-23T16:14:21.697Z,10.20
2023-02-23T16:17:08.414Z,10.20
2023-02-23T16:19:40.947Z,10.20
2023-02-23T16:22:21.096Z,10.20
2023-02-23T16:24:58.851Z,10.10
2023-02-23T16:27:29.292Z,10.20
2023-02-23T16:30:00.309Z,10.20
2023-02-23T16:32:35.833Z,10.20
2023-02-23T16:35:10.709Z,10.20
2023-02-23T16:38:03.195Z,10.10
2023-02-23T16:40:33.442Z,10.10
2023-02-23T16:43:01.519Z,10.10
2023-02-23T16:45:29.910Z,10.00
2023-02-23T16:48:02.313Z,10.00
2023-02-23T16:50:32.533Z,10.00
2023-02-23T16:53:02.118Z,10.00
2023-02-23T16:55:39.162Z,10.00
2023-02-23T16:58:11.873Z,9.90
2023-02-23T17:00:39.957Z,9.90
2023-02-23T17:03:11.698Z,9.90
2023-02-23T17:05:40.049Z,9.90
2023-02-23T17:08:10.538Z,9.90
2023-02-23T17:10:41.322Z,9.90
2023-02-23T17:13:17.776Z,9.90
2023-02-23T17:15:51.721Z,9.90
2023-02-23T17:18:20.399Z,9.80
2023-02-23T17:20:48.706Z,9.80
2023-02-23T17:23:16.728Z,9.80
2023-02-23T17:25:46.131Z,9.80
2023-02-23T17:28:14.484Z,9.80
2023-02-23T17:30:44.475Z,9.80
2023-02-23T17:33:12.756Z,9.80
2023-02-23T17:35:41.002Z,9.90
2023-02-23T17:38:09.611Z,9.90
2023-02-23T17:40:38.012Z,10.00
2023-02-23T17:43:08.642Z,10.00
2023-02-23T17:45:37.073Z,10.00
2023-02-23T17:48:05.433Z,10.00
2023-02-23T17:50:33.575Z,10.00
2023-02-23T17:53:01.627Z,10.00
2023-02-23T17:55:30.040Z,9.90
2023-02-23T17:57:58.141Z,9.90
2023-02-23T18:00:28.686Z,9.90
2023-02-23T18:02:57.150Z,10.00
2023-02-23T18:05:25.266Z,10.10
2023-02-23T18:07:53.329Z,10.00
2023-02-23T18:10:25.325Z,10.00
2023-02-23T18:12:53.717Z,9.90
2023-02-23T18:15:22.456Z,10.00
2023-02-23T18:17:54.627Z,9.90
2023-02-23T18:20:23.102Z,9.90
2023-02-23T18:22:51.383Z,9.90
2023-02-23T18:25:26.618Z,9.90
2023-02-23T18:27:58.563Z,9.90
2023-02-23T18:30:27.145Z,9.90
2023-02-23T18:33:00.477Z,10.00
2023-02-23T18:35:28.787Z,9.90
2023-02-23T18:37:56.996Z,9.90
2023-02-23T18:40:25.827Z,9.80
2023-02-23T18:42:54.029Z,9.80
2023-02-23T18:45:22.248Z,9.80
2023-02-23T18:47:51.516Z,9.80
2023-02-23T18:50:21.998Z,9.80
2023-02-23T18:52:51.285Z,9.80
2023-02-23T18:55:22.062Z,9.80
2023-02-23T18:57:50.861Z,9.80
2023-02-23T19:00:20.460Z,9.80
2023-02-23T19:02:49.396Z,9.70
2023-02-23T19:05:21.050Z,9.70
2023-02-23T19:07:51.586Z,9.70
2023-02-23T19:10:19.942Z,9.70
2023-02-23T19:12:49.543Z,9.60
2023-02-23T19:15:17.948Z,9.60
2023-02-23T19:17:47.420Z,9.60
2023-02-23T19:20:15.867Z,9.60
2023-02-23T19:22:45.467Z,9.60
2023-02-23T19:25:15.343Z,9.70
2023-02-23T19:27:43.834Z,9.70
2023-02-23T19:30:14.303Z,9.70
2023-02-23T19:32:43.144Z,9.60
2023-02-23T19:35:14.707Z,9.60
2023-02-23T19:37:48.593Z,9.60
2023-02-23T19:40:20.764Z,9.60
2023-02-23T19:42:49.569Z,9.50
2023-02-23T19:45:18.627Z,9.60
2023-02-23T19:47:47.067Z,9.70
2023-02-23T19:50:17.734Z,9.80
2023-02-23T19:52:46.645Z,9.70
2023-02-23T19:55:17.057Z,9.60
2023-02-23T19:57:45.187Z,9.60
2023-02-23T20:00:14.517Z,9.60
2023-02-23T20:02:43.608Z,9.50
2023-02-23T20:05:13.216Z,9.50
2023-02-23T20:07:41.710Z,9.50
2023-02-23T20:10:13.884Z,9.50
2023-02-23T20:12:43.835Z,9.50
2023-02-23T20:15:14.707Z,9.50
2023-02-23T20:17:42.867Z,9.60
2023-02-23T20:20:12.415Z,9.50
2023-02-23T20:22:42.042Z,9.60
2023-02-23T20:25:15.959Z,9.60
2023-02-23T20:27:45.946Z,9.60
2023-02-23T20:30:15.341Z,9.60
2023-02-23T20:32:43.627Z,9.50
2023-02-23T20:35:14.065Z,9.50
2023-02-23T20:37:42.682Z,9.50
2023-02-23T20:40:16.987Z,9.50
2023-02-23T20:42:48.662Z,9.40
2023-02-23T20:45:19.237Z,9.50
2023-02-23T20:47:51.861Z,9.50
2023-02-23T20:50:21.469Z,9.50
2023-02-23T20:52:50.329Z,9.50
2023-02-23T20:55:19.803Z,9.40
2023-02-23T20:57:49.762Z,9.40
2023-02-23T21:00:31.772Z,9.40
2023-02-23T21:03:01.358Z,9.40
2023-02-23T21:05:32.045Z,9.40
2023-02-23T21:08:01.342Z,9.50
2023-02-23T21:10:32.644Z,9.50
2023-02-23T21:13:02.178Z,9.50
2023-02-23T21:15:30.519Z,9.50
2023-02-23T21:17:59.317Z,9.50
2023-02-23T21:20:28.523Z,9.60
2023-02-23T21:22:56.992Z,9.60
2023-02-23T21:25:27.125Z,9.50
2023-02-23T21:27:55.820Z,9.50
2023-02-23T21:30:28.530Z,9.40
2023-02-23T21:32:57.856Z,9.40
2023-02-23T21:35:26.059Z,9.40
2023-02-23T21:37:54.226Z,9.40
2023-02-23T21:40:23.496Z,9.40
2023-02-23T21:42:52.038Z,9.40
2023-02-23T21:45:20.733Z,9.30
2023-02-23T21:47:50.401Z,9.40
2023-02-23T21:50:20.092Z,9.40
2023-02-23T21:52:48.777Z,9.40
2023-02-23T21:55:21.933Z,9.30
2023-02-23T21:57:51.120Z,9.30
2023-02-23T22:00:21.621Z,9.30
2023-02-23T22:02:52.238Z,9.30
2023-02-23T22:05:20.781Z,9.30
2023-02-23T22:07:50.293Z,9.30
2023-02-23T22:10:19.812Z,9.20
2023-02-23T22:12:50.103Z,9.20
2023-02-23T22:15:18.307Z,9.20
2023-02-23T22:17:46.563Z,9.10
2023-02-23T22:20:20.263Z,9.10
2023-02-23T22:22:50.477Z,9.10
2023-02-23T22:25:20.661Z,9.10
2023-02-23T22:27:49.222Z,9.10
2023-02-23T22:30:20.788Z,9.10
2023-02-23T22:32:49.335Z,9.20
2023-02-23T22:35:19.217Z,9.20
2023-02-23T22:37:47.545Z,9.20
2023-02-23T22:40:16.698Z,9.20
2023-02-23T22:42:48.106Z,9.10
2023-02-23T22:45:17.362Z,9.20
2023-02-23T22:47:45.835Z,9.20
2023-02-23T22:50:17.890Z,9.20
2023-02-23T22:52:48.094Z,9.20
2023-02-23T22:55:16.459Z,9.20
2023-02-23T22:57:45.989Z,9.20
2023-02-23T23:00:16.961Z,9.20
2023-02-23T23:02:45.419Z,9.20
2023-02-23T23:05:14.469Z,9.20
2023-02-23T23:07:46.647Z,9.20
2023-02-23T23:10:17.648Z,9.20
2023-02-23T23:12:46.612Z,9.20
2023-02-23T23:15:17.306Z,9.10
2023-02-23T23:17:48.568Z,9.10
2023-02-23T23:20:18.761Z,9.10
2023-02-23T23:22:46.943Z,9.10
2023-02-23T23:25:22.551Z,9.10
2023-02-23T23:27:53.579Z,9.10
2023-02-23T23:30:25.968Z,9.00
2023-02-23T23:32:54.453Z,9.00
2023-02-23T23:35:23.010Z,9.00
2023-02-23T23:37:51.907Z,9.10
2023-02-23T23:40:24.590Z,9.00
2023-02-23T23:42:53.103Z,9.00
2023-02-23T23:45:24.218Z,9.00
2023-02-23T23:47:52.484Z,9.00
2023-02-23T23:50:26.399Z,8.90
2023-02-23T23:52:54.558Z,8.90
2023-02-23T23:55:24.240Z,8.90
2023-02-23T23:57:52.344Z,8.90
